sensor_id;sensor_type;location;lat;lon;timestamp;P1;durP1;ratioP1;P2;durP2;ratioP2
75930;SDS011;64609;47.052;15.462;2023-09-30T00:00:25;14.10;;;9.23;;
75930;SDS011;64609;47.052;15.462;2023-09-30T00:02:51;10.38;;;8.57;;
75930;SDS011;64609;47.052;15.462;2023-09-30T00:05:17;15.73;;;8.55;;
75930;SDS011;64609;47.052;15.462;2023-09-30T00:07:45;12.82;;;8.55;;
75930;SDS011;64609;47.052;15.462;2023-09-30T00:10:11;13.77;;;8.25;;
75930;SDS011;64609;47.052;15.462;2023-09-30T00:12:36;14.30;;;8.70;;
75930;SDS011;64609;47.052;15.462;2023-09-30T00:15:02;14.18;;;8.75;;
75930;SDS011;64609;47.052;15.462;2023-09-30T00:17:29;15.18;;;8.15;;
75930;SDS011;64609;47.052;15.462;2023-09-30T00:19:55;18.83;;;8.75;;
75930;SDS011;64609;47.052;15.462;2023-09-30T00:22:21;9.70;;;7.95;;
75930;SDS011;64609;47.052;15.462;2023-09-30T00:24:47;13.82;;;7.93;;
75930;SDS011;64609;47.052;15.462;2023-09-30T00:27:13;14.32;;;8.32;;
75930;SDS011;64609;47.052;15.462;2023-09-30T00:29:39;12.23;;;8.52;;
75930;SDS011;64609;47.052;15.462;2023-09-30T00:32:04;12.48;;;8.18;;
75930;SDS011;64609;47.052;15.462;2023-09-30T00:34:33;13.38;;;8.82;;
75930;SDS011;64609;47.052;15.462;2023-09-30T00:36:59;12.33;;;8.73;;
75930;SDS011;64609;47.052;15.462;2023-09-30T00:39:25;13.05;;;8.50;;
75930;SDS011;64609;47.052;15.462;2023-09-30T00:41:54;10.03;;;7.97;;
75930;SDS011;64609;47.052;15.462;2023-09-30T00:44:21;10.55;;;8.70;;
75930;SDS011;64609;47.052;15.462;2023-09-30T00:46:46;20.45;;;8.77;;
75930;SDS011;64609;47.052;15.462;2023-09-30T00:49:12;11.75;;;8.85;;
75930;SDS011;64609;47.052;15.462;2023-09-30T00:51:39;12.15;;;8.40;;
75930;SDS011;64609;47.052;15.462;2023-09-30T00:54:05;13.95;;;8.30;;
75930;SDS011;64609;47.052;15.462;2023-09-30T00:56:31;15.20;;;8.93;;
75930;SDS011;64609;47.052;15.462;2023-09-30T00:58:58;11.63;;;8.35;;
75930;SDS011;64609;47.052;15.462;2023-09-30T01:01:24;14.00;;;8.38;;
75930;SDS011;64609;47.052;15.462;2023-09-30T01:03:50;11.50;;;8.50;;
75930;SDS011;64609;47.052;15.462;2023-09-30T01:06:16;17.15;;;8.38;;
75930;SDS011;64609;47.052;15.462;2023-09-30T01:08:42;12.23;;;8.15;;
75930;SDS011;64609;47.052;15.462;2023-09-30T01:11:08;11.80;;;8.32;;
75930;SDS011;64609;47.052;15.462;2023-09-30T01:13:34;14.48;;;8.43;;
75930;SDS011;64609;47.052;15.462;2023-09-30T01:16:07;11.82;;;8.20;;
75930;SDS011;64609;47.052;15.462;2023-09-30T01:18:37;14.15;;;8.77;;
75930;SDS011;64609;47.052;15.462;2023-09-30T01:21:04;12.85;;;8.65;;
75930;SDS011;64609;47.052;15.462;2023-09-30T01:23:31;11.60;;;7.60;;
75930;SDS011;64609;47.052;15.462;2023-09-30T01:25:57;13.63;;;8.02;;
75930;SDS011;64609;47.052;15.462;2023-09-30T01:28:25;9.95;;;7.88;;
75930;SDS011;64609;47.052;15.462;2023-09-30T01:30:51;10.60;;;7.88;;
75930;SDS011;64609;47.052;15.462;2023-09-30T01:33:17;12.02;;;8.45;;
75930;SDS011;64609;47.052;15.462;2023-09-30T01:35:44;13.63;;;8.48;;
75930;SDS011;64609;47.052;15.462;2023-09-30T01:38:10;15.48;;;8.48;;
75930;SDS011;64609;47.052;15.462;2023-09-30T01:40:35;13.40;;;8.82;;
75930;SDS011;64609;47.052;15.462;2023-09-30T01:43:02;12.55;;;8.80;;
75930;SDS011;64609;47.052;15.462;2023-09-30T01:45:28;11.13;;;8.55;;
75930;SDS011;64609;47.052;15.462;2023-09-30T01:47:54;12.38;;;7.97;;
75930;SDS011;64609;47.052;15.462;2023-09-30T01:50:20;9.35;;;7.95;;
75930;SDS011;64609;47.052;15.462;2023-09-30T01:52:46;10.32;;;8.43;;
75930;SDS011;64609;47.052;15.462;2023-09-30T01:55:11;11.70;;;8.30;;
75930;SDS011;64609;47.052;15.462;2023-09-30T01:57:37;12.80;;;9.07;;
75930;SDS011;64609;47.052;15.462;2023-09-30T02:00:03;11.05;;;9.02;;
75930;SDS011;64609;47.052;15.462;2023-09-30T02:02:30;14.70;;;8.65;;
75930;SDS011;64609;47.052;15.462;2023-09-30T02:04:56;14.15;;;9.27;;
75930;SDS011;64609;47.052;15.462;2023-09-30T02:07:22;10.23;;;8.50;;
75930;SDS011;64609;47.052;15.462;2023-09-30T02:09:47;12.27;;;9.45;;
75930;SDS011;64609;47.052;15.462;2023-09-30T02:12:14;9.82;;;8.80;;
75930;SDS011;64609;47.052;15.462;2023-09-30T02:14:39;13.50;;;8.50;;
75930;SDS011;64609;47.052;15.462;2023-09-30T02:17:05;12.35;;;9.13;;
75930;SDS011;64609;47.052;15.462;2023-09-30T02:19:31;12.95;;;8.57;;
75930;SDS011;64609;47.052;15.462;2023-09-30T02:21:59;15.15;;;8.35;;
75930;SDS011;64609;47.052;15.462;2023-09-30T02:24:25;12.32;;;9.00;;
75930;SDS011;64609;47.052;15.462;2023-09-30T02:26:50;11.25;;;8.70;;
75930;SDS011;64609;47.052;15.462;2023-09-30T02:29:16;11.95;;;8.35;;
75930;SDS011;64609;47.052;15.462;2023-09-30T02:31:42;11.50;;;8.52;;
75930;SDS011;64609;47.052;15.462;2023-09-30T02:34:07;9.85;;;8.85;;
75930;SDS011;64609;47.052;15.462;2023-09-30T02:36:33;11.98;;;9.07;;
75930;SDS011;64609;47.052;15.462;2023-09-30T02:39:04;11.05;;;9.02;;
75930;SDS011;64609;47.052;15.462;2023-09-30T02:41:30;11.23;;;9.23;;
75930;SDS011;64609;47.052;15.462;2023-09-30T02:43:55;12.73;;;8.85;;
75930;SDS011;64609;47.052;15.462;2023-09-30T02:46:21;10.63;;;8.75;;
75930;SDS011;64609;47.052;15.462;2023-09-30T02:48:46;11.55;;;10.05;;
75930;SDS011;64609;47.052;15.462;2023-09-30T02:51:12;15.40;;;10.48;;
75930;SDS011;64609;47.052;15.462;2023-09-30T02:53:38;12.05;;;9.75;;
75930;SDS011;64609;47.052;15.462;2023-09-30T02:56:04;18.85;;;10.55;;
75930;SDS011;64609;47.052;15.462;2023-09-30T02:58:30;11.70;;;10.27;;
75930;SDS011;64609;47.052;15.462;2023-09-30T03:00:56;15.13;;;10.70;;
75930;SDS011;64609;47.052;15.462;2023-09-30T03:03:21;15.02;;;10.60;;
75930;SDS011;64609;47.052;15.462;2023-09-30T03:05:50;14.77;;;10.77;;
75930;SDS011;64609;47.052;15.462;2023-09-30T03:08:16;16.17;;;10.70;;
75930;SDS011;64609;47.052;15.462;2023-09-30T03:10:41;13.27;;;10.85;;
75930;SDS011;64609;47.052;15.462;2023-09-30T03:13:07;17.02;;;10.85;;
75930;SDS011;64609;47.052;15.462;2023-09-30T03:15:34;17.35;;;10.20;;
75930;SDS011;64609;47.052;15.462;2023-09-30T03:18:01;14.23;;;10.18;;
75930;SDS011;64609;47.052;15.462;2023-09-30T03:20:26;12.70;;;9.75;;
75930;SDS011;64609;47.052;15.462;2023-09-30T03:22:52;13.90;;;10.20;;
75930;SDS011;64609;47.052;15.462;2023-09-30T03:25:18;14.50;;;10.88;;
75930;SDS011;64609;47.052;15.462;2023-09-30T03:27:46;14.65;;;10.52;;
75930;SDS011;64609;47.052;15.462;2023-09-30T03:30:12;13.80;;;10.00;;
75930;SDS011;64609;47.052;15.462;2023-09-30T03:32:40;15.40;;;10.50;;
75930;SDS011;64609;47.052;15.462;2023-09-30T03:35:07;12.20;;;10.68;;
75930;SDS011;64609;47.052;15.462;2023-09-30T03:37:36;12.10;;;9.73;;
75930;SDS011;64609;47.052;15.462;2023-09-30T03:40:02;17.13;;;10.10;;
75930;SDS011;64609;47.052;15.462;2023-09-30T03:42:51;18.40;;;10.48;;
75930;SDS011;64609;47.052;15.462;2023-09-30T03:45:17;16.60;;;10.43;;
75930;SDS011;64609;47.052;15.462;2023-09-30T03:47:43;14.65;;;11.18;;
75930;SDS011;64609;47.052;15.462;2023-09-30T03:50:10;15.57;;;10.38;;
75930;SDS011;64609;47.052;15.462;2023-09-30T03:52:40;14.70;;;9.85;;
75930;SDS011;64609;47.052;15.462;2023-09-30T03:55:09;12.45;;;10.02;;
75930;SDS011;64609;47.052;15.462;2023-09-30T03:57:38;17.00;;;10.93;;
75930;SDS011;64609;47.052;15.462;2023-09-30T04:00:04;16.88;;;9.88;;
75930;SDS011;64609;47.052;15.462;2023-09-30T04:02:36;16.92;;;10.07;;
75930;SDS011;64609;47.052;15.462;2023-09-30T04:05:02;15.55;;;10.80;;
75930;SDS011;64609;47.052;15.462;2023-09-30T04:07:29;15.02;;;11.20;;
75930;SDS011;64609;47.052;15.462;2023-09-30T04:09:55;15.98;;;10.68;;
75930;SDS011;64609;47.052;15.462;2023-09-30T04:12:21;12.73;;;10.00;;
75930;SDS011;64609;47.052;15.462;2023-09-30T04:14:50;13.38;;;10.38;;
75930;SDS011;64609;47.052;15.462;2023-09-30T04:17:17;13.48;;;10.18;;
75930;SDS011;64609;47.052;15.462;2023-09-30T04:19:42;15.85;;;9.80;;
75930;SDS011;64609;47.052;15.462;2023-09-30T04:22:08;12.48;;;10.77;;
75930;SDS011;64609;47.052;15.462;2023-09-30T04:24:34;15.05;;;10.55;;
75930;SDS011;64609;47.052;15.462;2023-09-30T04:26:59;13.98;;;10.40;;
75930;SDS011;64609;47.052;15.462;2023-09-30T04:29:28;17.45;;;10.90;;
75930;SDS011;64609;47.052;15.462;2023-09-30T04:31:55;12.15;;;9.75;;
75930;SDS011;64609;47.052;15.462;2023-09-30T04:34:21;14.45;;;10.70;;
75930;SDS011;64609;47.052;15.462;2023-09-30T04:36:47;16.52;;;11.13;;
75930;SDS011;64609;47.052;15.462;2023-09-30T04:39:12;15.23;;;10.93;;
75930;SDS011;64609;47.052;15.462;2023-09-30T04:41:39;18.30;;;11.30;;
75930;SDS011;64609;47.052;15.462;2023-09-30T04:44:06;14.90;;;11.10;;
75930;SDS011;64609;47.052;15.462;2023-09-30T04:46:35;16.45;;;11.68;;
75930;SDS011;64609;47.052;15.462;2023-09-30T04:49:01;17.33;;;12.70;;
75930;SDS011;64609;47.052;15.462;2023-09-30T04:51:27;22.15;;;13.85;;
75930;SDS011;64609;47.052;15.462;2023-09-30T04:53:53;23.02;;;15.73;;
75930;SDS011;64609;47.052;15.462;2023-09-30T04:56:20;20.85;;;15.07;;
75930;SDS011;64609;47.052;15.462;2023-09-30T04:58:45;28.25;;;16.67;;
75930;SDS011;64609;47.052;15.462;2023-09-30T05:01:12;20.88;;;15.02;;
75930;SDS011;64609;47.052;15.462;2023-09-30T05:03:37;27.17;;;16.55;;
75930;SDS011;64609;47.052;15.462;2023-09-30T05:06:03;30.25;;;15.70;;
75930;SDS011;64609;47.052;15.462;2023-09-30T05:08:29;20.55;;;14.27;;
75930;SDS011;64609;47.052;15.462;2023-09-30T05:10:56;18.33;;;13.15;;
75930;SDS011;64609;47.052;15.462;2023-09-30T05:13:21;18.77;;;12.48;;
75930;SDS011;64609;47.052;15.462;2023-09-30T05:15:50;16.58;;;12.85;;
75930;SDS011;64609;47.052;15.462;2023-09-30T05:18:16;17.05;;;10.90;;
75930;SDS011;64609;47.052;15.462;2023-09-30T05:20:42;17.38;;;12.23;;
75930;SDS011;64609;47.052;15.462;2023-09-30T05:23:09;18.95;;;11.32;;
75930;SDS011;64609;47.052;15.462;2023-09-30T05:25:38;15.45;;;10.93;;
75930;SDS011;64609;47.052;15.462;2023-09-30T05:28:04;14.63;;;9.77;;
75930;SDS011;64609;47.052;15.462;2023-09-30T05:30:32;11.80;;;9.93;;
75930;SDS011;64609;47.052;15.462;2023-09-30T05:32:58;14.27;;;10.50;;
75930;SDS011;64609;47.052;15.462;2023-09-30T05:35:25;18.60;;;11.10;;
75930;SDS011;64609;47.052;15.462;2023-09-30T05:37:52;13.30;;;10.55;;
75930;SDS011;64609;47.052;15.462;2023-09-30T05:40:19;16.73;;;10.18;;
75930;SDS011;64609;47.052;15.462;2023-09-30T05:42:47;12.75;;;10.07;;
75930;SDS011;64609;47.052;15.462;2023-09-30T05:45:16;19.58;;;11.02;;
75930;SDS011;64609;47.052;15.462;2023-09-30T05:47:42;14.93;;;10.32;;
75930;SDS011;64609;47.052;15.462;2023-09-30T05:50:09;17.75;;;10.68;;
75930;SDS011;64609;47.052;15.462;2023-09-30T05:55:05;18.80;;;12.05;;
75930;SDS011;64609;47.052;15.462;2023-09-30T05:57:31;14.43;;;11.13;;
75930;SDS011;64609;47.052;15.462;2023-09-30T05:59:57;15.07;;;11.07;;
75930;SDS011;64609;47.052;15.462;2023-09-30T06:02:23;16.27;;;11.02;;
75930;SDS011;64609;47.052;15.462;2023-09-30T06:04:50;20.73;;;11.30;;
75930;SDS011;64609;47.052;15.462;2023-09-30T06:07:18;17.40;;;10.68;;
75930;SDS011;64609;47.052;15.462;2023-09-30T06:09:45;12.68;;;10.18;;
75930;SDS011;64609;47.052;15.462;2023-09-30T06:12:13;16.25;;;10.38;;
75930;SDS011;64609;47.052;15.462;2023-09-30T06:14:39;16.92;;;10.45;;
75930;SDS011;64609;47.052;15.462;2023-09-30T06:17:05;15.63;;;9.90;;
75930;SDS011;64609;47.052;15.462;2023-09-30T06:19:32;12.85;;;9.77;;
75930;SDS011;64609;47.052;15.462;2023-09-30T06:21:58;15.20;;;9.80;;
75930;SDS011;64609;47.052;15.462;2023-09-30T06:24:24;14.20;;;9.60;;
75930;SDS011;64609;47.052;15.462;2023-09-30T06:26:50;16.92;;;10.05;;
75930;SDS011;64609;47.052;15.462;2023-09-30T06:29:16;15.13;;;10.02;;
75930;SDS011;64609;47.052;15.462;2023-09-30T06:31:42;14.18;;;8.98;;
75930;SDS011;64609;47.052;15.462;2023-09-30T06:34:08;14.27;;;9.68;;
75930;SDS011;64609;47.052;15.462;2023-09-30T06:36:36;13.57;;;9.18;;
75930;SDS011;64609;47.052;15.462;2023-09-30T06:39:03;13.98;;;8.82;;
75930;SDS011;64609;47.052;15.462;2023-09-30T06:41:30;17.15;;;9.20;;
75930;SDS011;64609;47.052;15.462;2023-09-30T06:43:56;13.57;;;8.82;;
75930;SDS011;64609;47.052;15.462;2023-09-30T06:46:22;16.75;;;8.48;;
75930;SDS011;64609;47.052;15.462;2023-09-30T06:48:49;19.33;;;8.98;;
75930;SDS011;64609;47.052;15.462;2023-09-30T06:51:17;13.18;;;8.50;;
75930;SDS011;64609;47.052;15.462;2023-09-30T06:53:43;16.20;;;8.95;;
75930;SDS011;64609;47.052;15.462;2023-09-30T06:56:10;17.77;;;9.18;;
75930;SDS011;64609;47.052;15.462;2023-09-30T06:58:37;15.48;;;9.40;;
75930;SDS011;64609;47.052;15.462;2023-09-30T07:01:03;18.20;;;9.13;;
75930;SDS011;64609;47.052;15.462;2023-09-30T07:03:29;13.50;;;9.07;;
75930;SDS011;64609;47.052;15.462;2023-09-30T07:05:55;16.80;;;9.20;;
75930;SDS011;64609;47.052;15.462;2023-09-30T07:08:22;16.55;;;9.82;;
75930;SDS011;64609;47.052;15.462;2023-09-30T07:10:47;12.43;;;9.38;;
75930;SDS011;64609;47.052;15.462;2023-09-30T07:13:17;13.02;;;9.90;;
75930;SDS011;64609;47.052;15.462;2023-09-30T07:15:43;14.50;;;10.05;;
75930;SDS011;64609;47.052;15.462;2023-09-30T07:18:09;14.35;;;10.35;;
75930;SDS011;64609;47.052;15.462;2023-09-30T07:20:34;25.13;;;14.18;;
75930;SDS011;64609;47.052;15.462;2023-09-30T07:23:00;34.95;;;17.23;;
75930;SDS011;64609;47.052;15.462;2023-09-30T07:25:28;39.75;;;19.75;;
75930;SDS011;64609;47.052;15.462;2023-09-30T07:27:57;38.30;;;18.02;;
75930;SDS011;64609;47.052;15.462;2023-09-30T07:30:23;32.15;;;16.38;;
75930;SDS011;64609;47.052;15.462;2023-09-30T07:32:49;25.48;;;13.07;;
75930;SDS011;64609;47.052;15.462;2023-09-30T07:35:15;23.55;;;12.43;;
75930;SDS011;64609;47.052;15.462;2023-09-30T07:37:41;25.95;;;12.18;;
75930;SDS011;64609;47.052;15.462;2023-09-30T07:40:07;22.50;;;12.35;;
75930;SDS011;64609;47.052;15.462;2023-09-30T07:42:35;16.35;;;10.10;;
75930;SDS011;64609;47.052;15.462;2023-09-30T07:45:01;18.65;;;10.68;;
75930;SDS011;64609;47.052;15.462;2023-09-30T07:47:28;20.42;;;11.23;;
75930;SDS011;64609;47.052;15.462;2023-09-30T07:49:55;17.42;;;11.00;;
75930;SDS011;64609;47.052;15.462;2023-09-30T07:52:21;21.73;;;10.95;;
75930;SDS011;64609;47.052;15.462;2023-09-30T07:54:47;16.00;;;10.23;;
75930;SDS011;64609;47.052;15.462;2023-09-30T07:57:12;14.43;;;10.15;;
75930;SDS011;64609;47.052;15.462;2023-09-30T07:59:38;14.57;;;10.57;;
75930;SDS011;64609;47.052;15.462;2023-09-30T08:02:04;14.02;;;10.23;;
75930;SDS011;64609;47.052;15.462;2023-09-30T08:04:30;17.50;;;10.68;;
75930;SDS011;64609;47.052;15.462;2023-09-30T08:06:56;18.00;;;10.70;;
75930;SDS011;64609;47.052;15.462;2023-09-30T08:09:22;18.02;;;10.00;;
75930;SDS011;64609;47.052;15.462;2023-09-30T08:11:49;17.92;;;10.63;;
75930;SDS011;64609;47.052;15.462;2023-09-30T08:14:15;16.98;;;10.23;;
75930;SDS011;64609;47.052;15.462;2023-09-30T08:16:41;14.70;;;9.68;;
75930;SDS011;64609;47.052;15.462;2023-09-30T08:19:08;18.48;;;10.68;;
75930;SDS011;64609;47.052;15.462;2023-09-30T08:21:34;13.57;;;9.80;;
75930;SDS011;64609;47.052;15.462;2023-09-30T08:23:59;13.82;;;10.70;;
75930;SDS011;64609;47.052;15.462;2023-09-30T08:26:25;14.40;;;10.27;;
75930;SDS011;64609;47.052;15.462;2023-09-30T08:28:51;17.25;;;10.38;;
75930;SDS011;64609;47.052;15.462;2023-09-30T08:31:16;15.60;;;12.05;;
75930;SDS011;64609;47.052;15.462;2023-09-30T08:33:42;26.73;;;17.55;;
75930;SDS011;64609;47.052;15.462;2023-09-30T08:36:10;21.80;;;13.88;;
75930;SDS011;64609;47.052;15.462;2023-09-30T08:38:37;22.95;;;14.00;;
75930;SDS011;64609;47.052;15.462;2023-09-30T08:41:04;16.15;;;10.80;;
75930;SDS011;64609;47.052;15.462;2023-09-30T08:43:29;14.73;;;9.80;;
75930;SDS011;64609;47.052;15.462;2023-09-30T08:45:59;20.45;;;10.68;;
75930;SDS011;64609;47.052;15.462;2023-09-30T08:48:27;17.05;;;10.18;;
75930;SDS011;64609;47.052;15.462;2023-09-30T08:50:55;18.95;;;9.75;;
75930;SDS011;64609;47.052;15.462;2023-09-30T08:53:22;16.77;;;10.50;;
75930;SDS011;64609;47.052;15.462;2023-09-30T08:55:54;21.10;;;10.93;;
75930;SDS011;64609;47.052;15.462;2023-09-30T08:58:24;22.52;;;10.52;;
75930;SDS011;64609;47.052;15.462;2023-09-30T09:00:52;18.02;;;10.07;;
75930;SDS011;64609;47.052;15.462;2023-09-30T09:03:18;18.83;;;10.30;;
75930;SDS011;64609;47.052;15.462;2023-09-30T09:05:45;20.77;;;10.48;;
75930;SDS011;64609;47.052;15.462;2023-09-30T09:08:12;14.23;;;9.77;;
75930;SDS011;64609;47.052;15.462;2023-09-30T09:10:54;17.67;;;10.15;;
75930;SDS011;64609;47.052;15.462;2023-09-30T09:13:26;17.58;;;9.95;;
75930;SDS011;64609;47.052;15.462;2023-09-30T09:16:05;20.30;;;9.73;;
75930;SDS011;64609;47.052;15.462;2023-09-30T09:18:34;15.00;;;10.07;;
75930;SDS011;64609;47.052;15.462;2023-09-30T09:21:07;13.48;;;8.98;;
75930;SDS011;64609;47.052;15.462;2023-09-30T09:23:38;15.27;;;9.23;;
75930;SDS011;64609;47.052;15.462;2023-09-30T09:26:07;14.80;;;9.25;;
75930;SDS011;64609;47.052;15.462;2023-09-30T09:28:37;14.27;;;8.95;;
75930;SDS011;64609;47.052;15.462;2023-09-30T09:31:29;15.65;;;9.15;;
75930;SDS011;64609;47.052;15.462;2023-09-30T09:33:59;13.07;;;9.13;;
75930;SDS011;64609;47.052;15.462;2023-09-30T09:36:41;21.40;;;10.35;;
75930;SDS011;64609;47.052;15.462;2023-09-30T09:39:09;16.42;;;8.55;;
75930;SDS011;64609;47.052;15.462;2023-09-30T09:41:50;15.40;;;8.57;;
75930;SDS011;64609;47.052;15.462;2023-09-30T09:44:17;15.07;;;8.85;;
75930;SDS011;64609;47.052;15.462;2023-09-30T09:46:50;17.55;;;9.20;;
75930;SDS011;64609;47.052;15.462;2023-09-30T09:49:17;15.70;;;8.20;;
75930;SDS011;64609;47.052;15.462;2023-09-30T09:51:46;12.23;;;8.15;;
75930;SDS011;64609;47.052;15.462;2023-09-30T09:54:14;16.50;;;8.13;;
75930;SDS011;64609;47.052;15.462;2023-09-30T09:56:41;12.52;;;7.90;;
75930;SDS011;64609;47.052;15.462;2023-09-30T09:59:09;14.32;;;8.43;;
75930;SDS011;64609;47.052;15.462;2023-09-30T10:01:37;11.48;;;7.75;;
75930;SDS011;64609;47.052;15.462;2023-09-30T10:04:05;12.50;;;7.78;;
75930;SDS011;64609;47.052;15.462;2023-09-30T10:06:31;10.95;;;7.82;;
75930;SDS011;64609;47.052;15.462;2023-09-30T10:09:03;17.25;;;7.82;;
75930;SDS011;64609;47.052;15.462;2023-09-30T10:11:32;14.75;;;8.07;;
75930;SDS011;64609;47.052;15.462;2023-09-30T10:13:58;12.00;;;7.70;;
75930;SDS011;64609;47.052;15.462;2023-09-30T10:19:08;13.95;;;7.65;;
75930;SDS011;64609;47.052;15.462;2023-09-30T10:21:35;15.70;;;7.78;;
75930;SDS011;64609;47.052;15.462;2023-09-30T10:29:57;14.35;;;7.82;;
75930;SDS011;64609;47.052;15.462;2023-09-30T10:35:18;10.40;;;7.53;;
75930;SDS011;64609;47.052;15.462;2023-09-30T10:37:45;12.68;;;7.50;;
75930;SDS011;64609;47.052;15.462;2023-09-30T10:42:52;13.35;;;7.68;;
75930;SDS011;64609;47.052;15.462;2023-09-30T10:48:45;14.25;;;7.55;;
75930;SDS011;64609;47.052;15.462;2023-09-30T10:51:11;12.40;;;7.45;;
75930;SDS011;64609;47.052;15.462;2023-09-30T10:56:16;16.45;;;8.13;;
75930;SDS011;64609;47.052;15.462;2023-09-30T10:58:46;11.27;;;7.45;;
75930;SDS011;64609;47.052;15.462;2023-09-30T11:01:17;16.92;;;8.02;;
75930;SDS011;64609;47.052;15.462;2023-09-30T11:03:45;16.77;;;8.38;;
75930;SDS011;64609;47.052;15.462;2023-09-30T11:06:15;14.20;;;8.27;;
75930;SDS011;64609;47.052;15.462;2023-09-30T11:08:47;17.23;;;8.38;;
75930;SDS011;64609;47.052;15.462;2023-09-30T11:14:29;13.98;;;8.13;;
75930;SDS011;64609;47.052;15.462;2023-09-30T11:16:56;17.40;;;8.38;;
75930;SDS011;64609;47.052;15.462;2023-09-30T11:19:24;15.32;;;8.88;;
75930;SDS011;64609;47.052;15.462;2023-09-30T11:21:53;15.50;;;8.73;;
75930;SDS011;64609;47.052;15.462;2023-09-30T11:24:20;14.10;;;8.13;;
75930;SDS011;64609;47.052;15.462;2023-09-30T11:26:46;16.42;;;8.43;;
75930;SDS011;64609;47.052;15.462;2023-09-30T11:31:41;12.98;;;7.88;;
75930;SDS011;64609;47.052;15.462;2023-09-30T11:34:12;14.48;;;8.00;;
75930;SDS011;64609;47.052;15.462;2023-09-30T11:36:41;14.45;;;7.90;;
75930;SDS011;64609;47.052;15.462;2023-09-30T11:39:22;12.05;;;7.25;;
75930;SDS011;64609;47.052;15.462;2023-09-30T11:41:51;13.35;;;7.60;;
75930;SDS011;64609;47.052;15.462;2023-09-30T11:44:17;14.35;;;7.72;;
75930;SDS011;64609;47.052;15.462;2023-09-30T11:52:09;13.40;;;7.18;;
75930;SDS011;64609;47.052;15.462;2023-09-30T11:54:41;15.57;;;8.18;;
75930;SDS011;64609;47.052;15.462;2023-09-30T11:57:11;13.70;;;7.28;;
75930;SDS011;64609;47.052;15.462;2023-09-30T11:59:41;14.43;;;7.88;;
75930;SDS011;64609;47.052;15.462;2023-09-30T12:02:09;12.18;;;7.53;;
75930;SDS011;64609;47.052;15.462;2023-09-30T12:04:35;14.38;;;8.15;;
75930;SDS011;64609;47.052;15.462;2023-09-30T12:07:01;13.43;;;6.75;;
75930;SDS011;64609;47.052;15.462;2023-09-30T12:09:27;14.07;;;7.35;;
75930;SDS011;64609;47.052;15.462;2023-09-30T12:11:54;12.27;;;7.82;;
75930;SDS011;64609;47.052;15.462;2023-09-30T12:14:22;15.30;;;8.10;;
75930;SDS011;64609;47.052;15.462;2023-09-30T12:16:51;12.93;;;7.60;;
75930;SDS011;64609;47.052;15.462;2023-09-30T12:19:17;17.00;;;7.03;;
75930;SDS011;64609;47.052;15.462;2023-09-30T12:21:43;15.13;;;7.93;;
75930;SDS011;64609;47.052;15.462;2023-09-30T12:24:12;12.88;;;7.78;;
75930;SDS011;64609;47.052;15.462;2023-09-30T12:26:45;13.90;;;8.43;;
75930;SDS011;64609;47.052;15.462;2023-09-30T12:29:14;13.10;;;7.65;;
75930;SDS011;64609;47.052;15.462;2023-09-30T12:31:42;14.20;;;8.40;;
75930;SDS011;64609;47.052;15.462;2023-09-30T12:34:12;16.45;;;7.80;;
75930;SDS011;64609;47.052;15.462;2023-09-30T12:36:38;16.05;;;8.50;;
75930;SDS011;64609;47.052;15.462;2023-09-30T12:39:05;14.57;;;7.57;;
75930;SDS011;64609;47.052;15.462;2023-09-30T12:41:44;14.73;;;8.40;;
75930;SDS011;64609;47.052;15.462;2023-09-30T12:44:10;14.25;;;7.70;;
75930;SDS011;64609;47.052;15.462;2023-09-30T12:46:36;14.85;;;8.43;;
75930;SDS011;64609;47.052;15.462;2023-09-30T12:49:04;19.15;;;8.13;;
75930;SDS011;64609;47.052;15.462;2023-09-30T12:51:30;14.27;;;8.02;;
75930;SDS011;64609;47.052;15.462;2023-09-30T12:53:56;15.38;;;7.72;;
75930;SDS011;64609;47.052;15.462;2023-09-30T12:56:23;20.02;;;8.55;;
75930;SDS011;64609;47.052;15.462;2023-09-30T12:58:49;13.00;;;7.78;;
75930;SDS011;64609;47.052;15.462;2023-09-30T13:01:15;17.10;;;7.70;;
75930;SDS011;64609;47.052;15.462;2023-09-30T13:03:43;13.68;;;8.50;;
75930;SDS011;64609;47.052;15.462;2023-09-30T13:06:12;18.48;;;7.80;;
75930;SDS011;64609;47.052;15.462;2023-09-30T13:08:38;15.05;;;8.80;;
75930;SDS011;64609;47.052;15.462;2023-09-30T13:11:04;15.52;;;8.57;;
75930;SDS011;64609;47.052;15.462;2023-09-30T13:13:29;15.52;;;8.30;;
75930;SDS011;64609;47.052;15.462;2023-09-30T13:15:58;12.68;;;8.10;;
75930;SDS011;64609;47.052;15.462;2023-09-30T13:18:24;13.30;;;7.68;;
75930;SDS011;64609;47.052;15.462;2023-09-30T13:20:50;13.80;;;8.32;;
75930;SDS011;64609;47.052;15.462;2023-09-30T13:23:17;17.23;;;8.93;;
75930;SDS011;64609;47.052;15.462;2023-09-30T13:25:43;18.05;;;8.13;;
75930;SDS011;64609;47.052;15.462;2023-09-30T13:28:09;14.90;;;8.00;;
75930;SDS011;64609;47.052;15.462;2023-09-30T13:30:35;17.42;;;8.80;;
75930;SDS011;64609;47.052;15.462;2023-09-30T13:33:01;14.85;;;8.77;;
75930;SDS011;64609;47.052;15.462;2023-09-30T13:35:27;15.85;;;8.45;;
75930;SDS011;64609;47.052;15.462;2023-09-30T13:37:52;17.50;;;8.85;;
75930;SDS011;64609;47.052;15.462;2023-09-30T13:40:18;19.40;;;9.00;;
75930;SDS011;64609;47.052;15.462;2023-09-30T13:42:44;14.35;;;8.85;;
75930;SDS011;64609;47.052;15.462;2023-09-30T13:45:10;15.90;;;8.40;;
75930;SDS011;64609;47.052;15.462;2023-09-30T13:47:36;15.82;;;8.70;;
75930;SDS011;64609;47.052;15.462;2023-09-30T13:50:02;15.20;;;9.02;;
75930;SDS011;64609;47.052;15.462;2023-09-30T13:52:33;20.10;;;9.85;;
75930;SDS011;64609;47.052;15.462;2023-09-30T13:55:01;15.85;;;8.30;;
75930;SDS011;64609;47.052;15.462;2023-09-30T13:57:29;17.15;;;9.27;;
75930;SDS011;64609;47.052;15.462;2023-09-30T13:59:55;16.95;;;9.13;;
75930;SDS011;64609;47.052;15.462;2023-09-30T14:02:21;16.77;;;9.25;;
75930;SDS011;64609;47.052;15.462;2023-09-30T14:04:47;15.50;;;9.20;;
75930;SDS011;64609;47.052;15.462;2023-09-30T14:07:13;14.32;;;8.57;;
75930;SDS011;64609;47.052;15.462;2023-09-30T14:09:39;14.98;;;8.55;;
75930;SDS011;64609;47.052;15.462;2023-09-30T14:12:05;16.10;;;8.85;;
75930;SDS011;64609;47.052;15.462;2023-09-30T14:14:32;14.40;;;8.73;;
75930;SDS011;64609;47.052;15.462;2023-09-30T14:16:59;17.77;;;8.98;;
75930;SDS011;64609;47.052;15.462;2023-09-30T14:19:24;16.58;;;9.00;;
75930;SDS011;64609;47.052;15.462;2023-09-30T14:21:50;17.35;;;9.52;;
75930;SDS011;64609;47.052;15.462;2023-09-30T14:24:16;18.75;;;9.68;;
75930;SDS011;64609;47.052;15.462;2023-09-30T14:26:42;16.40;;;9.07;;
75930;SDS011;64609;47.052;15.462;2023-09-30T14:29:09;15.70;;;8.85;;
75930;SDS011;64609;47.052;15.462;2023-09-30T14:31:37;15.93;;;9.30;;
75930;SDS011;64609;47.052;15.462;2023-09-30T14:34:03;18.08;;;9.40;;
75930;SDS011;64609;47.052;15.462;2023-09-30T14:36:30;17.08;;;9.18;;
75930;SDS011;64609;47.052;15.462;2023-09-30T14:38:57;16.25;;;8.63;;
75930;SDS011;64609;47.052;15.462;2023-09-30T14:41:24;15.07;;;8.90;;
75930;SDS011;64609;47.052;15.462;2023-09-30T14:43:50;16.55;;;9.48;;
75930;SDS011;64609;47.052;15.462;2023-09-30T14:46:15;16.25;;;9.00;;
75930;SDS011;64609;47.052;15.462;2023-09-30T14:48:41;15.07;;;8.90;;
75930;SDS011;64609;47.052;15.462;2023-09-30T14:51:08;18.80;;;9.90;;